Squad war stats
Faction Empire
Rank 105
TrueSkill™ 28,888
Reputation 18,395
Wars 180
Wins 92
Draws 36
Losses 52
Uplinks captured 7,037
Uplinks saved 2,290
Last updated 7 minutes ago
Mu 28.923
Sigma 0.010
Last War today
Current War ElvenRebels
Battle history
Date Opp. skill Opponent Result Score Opp. score Skill result Skill before Mu before Sigma before
2019-03-22 96% WeReAllDoomed WIN 45 0 0 28888 28.923 0.010
2019-03-20 102% KORA LOSS 41 42 0 28888 28.923 0.010
2019-03-17 62% Deutsche-Alphas WIN 45 6 0 28899 28.923 0.007
2019-03-13 96% RUS★ARMY DRAW 45 45 0 28899 28.923 0.007
2019-03-11 93% Paradise-Lost WIN 45 11 0 28899 28.923 0.007
2019-03-09 62% Русскиенесдаются WIN 45 24 0 28899 28.923 0.007
2019-03-07 99% ~FORCE~ DRAW 45 45 0 28899 28.923 0.007
2019-03-05 93% Rebelles_Gaulois WIN 45 44 0 28899 28.923 0.007
2019-03-02 98% Usmc.jedi WIN 45 1 0 28899 28.923 0.007
2019-02-28 99% GUARDIANSOFTHE DRAW 45 45 0 28899 28.923 0.007
2019-02-26 99% Spanish_Rebels_2 LOSS 38 41 -82 28981 29.016 0.010
2019-02-24 97% Yoda's-Rebellion WIN 45 41 0 28981 29.016 0.010
2019-02-22 98% SpaceBarons WIN 45 44 0 28981 29.016 0.010
2019-02-20 98% Ewoks-revenge WIN 45 16 0 28981 29.016 0.010
2019-02-18 97% HowlingWookie's WIN 40 23 0 28981 29.016 0.010
2019-02-15 98% Blackwingrisque WIN 45 25 0 28981 29.016 0.010
2019-02-13 96% Donate-n-Strike WIN 45 21 0 28981 29.016 0.010
2019-02-11 92% OmiSquad WIN 41 16 0 28981 29.016 0.010
2019-02-09 98% Force-awakens WIN 45 1 0 28981 29.016 0.010
2019-02-05 76% OmiSquad DRAW 45 45 0 28981 29.016 0.010
2019-02-03 97% Ackbar_Awakens WIN 45 10 0 28981 29.016 0.010
2019-02-01 48% SpaceWeasels WIN 45 7 0 28981 29.016 0.010
2019-01-30 98% НовоРоссия DRAW 45 45 0 28981 29.016 0.010
2019-01-27 98% BlackWingShadow LOSS 34 40 -1 28991 29.017 0.007
2019-01-24 97% BlackWingRising DRAW 45 45 0 28991 29.017 0.007
2019-01-22 98% Empire's_end WIN 45 40 0 28991 29.017 0.007
2019-01-20 98% RUCOSJEDI WIN 45 38 0 28991 29.017 0.007
2019-01-18 98% HowlingWookie's DRAW 45 45 0 28991 29.017 0.007
2019-01-16 99% MiserySquad1E DRAW 45 45 0 28991 29.017 0.007
2019-01-14 81% Warriors.Clan WIN 45 13 0 28991 29.017 0.007
2019-01-12 103% Knight'sTemplar WIN 45 44 +271 28720 28.750 0.009
2019-01-10 95% RusWars WIN 45 1 0 28720 28.750 0.009
2019-01-07 91% Deutsch'15 DRAW 45 45 0 28720 28.750 0.009
2019-01-02 93% Elite_Champs2 WIN 45 23 0 28720 28.750 0.009
2018-12-31 98% Light-This-Force WIN 45 6 0 28720 28.750 0.009
2018-12-29 99% Jedi-Master's DRAW 45 45 0 28720 28.750 0.009
2018-12-27 100% Italia-HanSolo2 DRAW 45 45 0 28720 28.750 0.009
2018-12-24 98% NabooDivision WIN 45 0 0 28720 28.750 0.009
2018-12-22 100% W.A.R.Yoda DRAW 45 45 0 28720 28.750 0.009
2018-12-20 101% FORCE3K_Academy WIN 45 42 +87 28633 28.668 0.010
2018-12-18 94% Outlaw1234 WIN 45 23 0 28633 28.668 0.010
2018-12-16 97% FenixSqArgentina WIN 45 30 0 28633 28.668 0.010
2018-12-13 104% n7specters DRAW 45 45 0 28633 28.668 0.010
2018-12-08 102% ActiveDonatorYMW DRAW 45 45 0 28633 28.668 0.010
2018-12-06 104% Jedi-Rebellion WIN 40 35 +100 28533 28.569 0.010
2018-12-04 98% MyRebelBrothers WIN 45 10 0 28533 28.569 0.010
2018-12-02 99% Wookie-Clan WIN 45 13 0 28533 28.569 0.010
2018-11-30 99% JediShadows WIN 45 3 0 28533 28.569 0.010
2018-11-21 99% Canada'sMinions WIN 45 2 0 28533 28.569 0.010
2018-11-18 100% Kenobi-Academy LOSS 28 42 0 28533 28.569 0.010
2018-11-16 80% Deutsche-Alphas WIN 45 0 0 28533 28.569 0.010
2018-11-14 87% Madine's_Legacy WIN 45 11 0 28533 28.569 0.010
2018-11-12 85% GReece WIN 45 4 0 28533 28.569 0.010
2018-11-10 97% Deutsch+aktiv2 LOSS 44 45 0 28533 28.569 0.010
2018-11-08 99% FRancE WIN 45 13 0 28533 28.569 0.010
2018-11-06 95% Marauders-Zulu WIN 40 34 0 28533 28.568 0.010
2018-11-04 99% ESCUADRON_FENIX WIN 45 11 0 28533 28.568 0.010
2018-10-30 99% ElvenRebels WIN 40 25 0 28533 28.568 0.010
2018-10-28 93% Rebels_of_Light WIN 45 6 0 28533 28.568 0.010
2018-10-26 96% RebelliousWeeds WIN 45 18 +1 28532 28.568 0.010
2018-10-23 100% BarefootPhoenix WIN 45 44 0 28532 28.568 0.010
2018-10-21 103% SONS_OF_DEATH DRAW 45 45 0 28532 28.568 0.010
2018-10-17 101% RUCOSJEDI WIN 45 30 +60 28472 28.515 0.012
2018-10-15 97% Jedi_Brigada WIN 45 12 0 28472 28.515 0.012
2018-10-13 98% Charlies_boys WIN 45 9 +1 28471 28.514 0.012
2018-10-11 99% FinnLuke WIN 45 19 0 28471 28.514 0.012
2018-10-08 99% RebelsReborn WIN 45 16 +2 28469 28.512 0.012
2018-10-06 101% DejavuChaos DRAW 45 45 0 28469 28.512 0.012
2018-10-04 97% Jedi-Rebellion LOSS 16 45 0 28469 28.512 0.012
2018-10-01 93% English-Elite WIN 45 11 0 28469 28.512 0.012
2018-09-29 97% Templar_Jedi DRAW 45 45 0 28469 28.512 0.012
2018-09-27 100% BATTLERAXFURY LOSS 31 45 0 28469 28.512 0.012
2018-09-24 100% TheMorningMob WIN 45 43 +54 28415 28.492 0.022
2018-09-22 100% Argentina-Rogue1 WIN 45 35 +13 28402 28.487 0.024
2018-09-20 93% DEUTSCH+2016 WIN 45 10 0 28402 28.487 0.024
2018-09-13 96% Italian212th LOSS 8 45 -1 28403 28.487 0.024
2018-09-10 97% ItalianLegacy WIN 45 0 +2 28401 28.486 0.024
2018-09-08 97% Force_United WIN 45 28 +3 28398 28.484 0.024
2018-09-05 97% Madridatope LOSS 21 45 -1 28399 28.484 0.024
2018-09-01 99% JEDI.NIGHTS LOSS 14 45 -461 28860 29.395 0.153
2018-08-29 92% windows-revenge LOSS 24 41 -144 29004 29.569 0.162
2018-08-26 108% Blackwingrisque WIN 44 40 +1,803 27201 28.697 0.427
2018-08-22 113% Luke'sboys WIN 40 23 +2,418 24783 27.700 0.833
2018-08-05 109% Jedi-Warship LOSS 31 35 +403 25570 28.213 0.755
2018-07-08 108% Force_Unleashed LOSS 13 45 0 27530 28.213 0.195
2018-07-05 104% Firebase4 LOSS 26 43 +197 27333 28.760 0.408
2018-06-25 99% France-Dagobah LOSS 32 45 0 27963 28.769 0.230
2018-06-23 103% Canada.Edmonton LOSS 5 45 +2 27961 28.770 0.231
2018-06-18 106% havoc_jedi LOSS 36 45 0 27961 28.770 0.231
2018-06-08 99% JediJumpCrew LOSS 41 45 -151 28882 28.941 0.017
2018-06-05 63% Archos WIN 45 4 0 28882 28.941 0.017
2018-06-03 98% KillerFrogs WIN 45 23 0 28882 28.941 0.017
2018-05-29 99% BattleRaxChaos DRAW 45 45 0 28882 28.941 0.017
2018-05-23 103% The_Resistance LOSS 44 45 0 28882 28.941 0.017
2018-05-21 99% SlayingTroopers WIN 38 35 0 28882 28.941 0.017
2018-05-14 103% W.A.R.Jedi LOSS 21 45 0 28882 28.941 0.017
2018-05-11 98% Badger-Legion WIN 39 11 0 28882 28.941 0.017
2018-05-06 97% Texasrebels WIN 45 16 0 28882 28.941 0.017
2018-05-03 100% France-Dagobah-2 LOSS 14 45 -136 29018 29.291 0.078
2018-04-28 100% Blackwingrebels DRAW 45 45 0 29018 29.291 0.078
2018-04-26 100% MagyarBFSM DRAW 45 45 0 29018 29.291 0.078
2018-04-24 98% German'Allianz WIN 45 13 0 29018 29.291 0.078
2018-04-20 98% Quebec_rebelle_a WIN 41 35 0 29018 29.291 0.078
2018-04-17 97% BattleRaxAttack WIN 41 26 0 29018 29.291 0.078
2018-04-14 98% battledawgs WIN 45 22 0 29018 29.291 0.078
2018-04-12 88% Paradise-Lost WIN 45 42 0 29018 29.291 0.078
2018-04-10 102% SkywalkersPride LOSS 15 44 0 29018 29.291 0.078
2018-04-07 103% PartylikePorkins LOSS 12 45 0 29018 29.291 0.078
2018-04-04 94% Jedi-BladeForce LOSS 44 45 -3 29021 29.295 0.078
2018-04-02 100% Marauders-Zulu DRAW 45 45 0 29021 29.295 0.078
2018-03-30 92% Crop_Dusters WIN 45 4 0 29021 29.295 0.078
2018-03-28 102% Texas_Battalion LOSS 38 45 0 29021 29.295 0.078
2018-03-26 96% REBELDES4ever DRAW 45 45 0 29021 29.295 0.078
2018-03-23 102% FalloftheEmpire LOSS 9 45 0 29021 29.295 0.078
2018-03-21 100% theCave DRAW 45 45 0 29021 29.295 0.078
2018-03-19 98% Don-da-Don WIN 45 13 0 29021 29.295 0.078
2018-03-17 106% IngloriousRebėls LOSS 5 45 0 29021 29.295 0.078
2018-03-12 83% EspañaSpace DRAW 45 45 0 29021 29.295 0.078
2018-03-09 96% Ackbar's_Revenge LOSS 11 45 -7 29028 29.305 0.079
2018-03-06 101% Blackwingrisque LOSS 32 34 +52 28976 29.346 0.106
2018-03-04 102% FalloftheEmpire LOSS 43 44 0 28976 29.346 0.106
2018-03-01 101% EscuadrónAzul LOSS 38 41 +30 28946 29.470 0.150
2018-02-24 100% NewOrder-Jedi LOSS 6 45 +4 28942 29.494 0.158
2018-02-21 106% YodasMarines WIN 45 44 +1,373 27569 28.869 0.372
2018-02-13 106% FrancEvolution1 LOSS 19 40 0 28129 28.869 0.212
2018-02-11 104% BattleRaxDestroy DRAW 45 45 0 28129 28.869 0.212
2018-02-08 106% W.A.R.Outlaws LOSS 18 41 0 28129 28.869 0.212
2018-02-05 102% FrancEvolution3 LOSS 14 45 +3 28126 28.872 0.213
2018-02-03 104% Force-awakens LOSS 41 43 +38 28088 28.886 0.228
2018-01-30 101% Rebelsyiir DRAW 45 45 0 28088 28.886 0.228
2018-01-18 103% havoc_rebellion LOSS 44 45 0 28858 28.886 0.008
2018-01-12 100% BattleRaxChaos LOSS 29 41 0 28858 28.886 0.008
2018-01-10 99% PiratesLife4me LOSS 19 37 -368 29226 29.389 0.047
2018-01-06 98% Paradise-Lost WIN 41 31 0 29226 29.389 0.047
2018-01-04 101% Blackwingrisque LOSS 25 45 0 29226 29.389 0.047
2018-01-01 104% Force-awakens WIN 45 27 +1,020 28206 28.787 0.166
2017-12-29 104% SeattleRebels DRAW 45 45 0 28206 28.787 0.166
2017-12-22 103% Royal_Rebelz LOSS 43 45 +173 28033 29.103 0.306
2017-12-20 105% BaronJedi WIN 45 11 +857 27176 28.809 0.467
2017-12-17 90% JAPAN反乱軍★DENGANA WIN 45 25 +188 26988 28.699 0.489
2017-12-14 110% Fire_and_Ice DRAW 45 45 0 26988 28.699 0.489
2017-12-12 102% havoc_u4ea DRAW 45 45 0 26988 28.699 0.489
2017-12-08 110% _UnNamed_ DRAW 45 45 0 26988 28.699 0.489
2017-12-05 110% JEDI-WATCHMEN LOSS 22 45 +490 26498 29.431 0.838
2017-11-14 100% FU8AR LOSS 8 45 0 27898 29.431 0.438
2017-11-09 99% Ruf-Nex LOSS 28 45 +3 27895 29.698 0.515
2017-11-05 102% StarWars_GSK WIN 33 26 +116 27779 29.674 0.542
2017-10-26 100% Forceyourself WIN 45 11 +6 28473 29.674 0.343
2017-10-13 100% ~FORCE~Kenobi LOSS 35 45 0 29313 29.674 0.103
2017-10-11 98% W.A.R.Younglings WIN 41 26 +60 29253 29.627 0.107
2017-10-07 100% NewOrder-Jedi LOSS 18 44 0 29253 29.627 0.107
2017-10-03 99% YodasMarines DRAW 45 45 0 29253 29.627 0.107
2017-10-01 101% ~FORCE~ DRAW 45 45 0 29253 29.627 0.107
2017-09-12 94% Nick211 WIN 45 8 +3 29250 29.625 0.107
2017-09-10 102% Marauders-Alpha LOSS 25 44 0 29250 29.625 0.107
2017-09-06 88% Templar_Academy WIN 45 17 +4 29246 29.622 0.108
2017-09-01 99% Echo-Chaos WIN 39 23 +103 29143 29.566 0.121
2017-08-29 102% Havoc_Recon DRAW 45 45 0 29143 29.566 0.121
2017-08-25 95% Wolf-Battalion LOSS 41 45 0 29143 29.567 0.121
2017-08-23 100% China-使者千年隼号 DRAW 45 45 0 29143 29.567 0.121
2017-08-18 99% Force-awakens LOSS 33 36 -145 29288 30.074 0.225
2017-08-15 96% alpha-chaos WIN 41 35 +16 29272 30.069 0.228
2017-08-13 102% BattleRax DRAW 45 45 0 29272 30.069 0.228
2017-08-10 98% AustrAlienZ WIN 45 16 0 29272 30.069 0.228
2017-08-07 100% batman3 WIN 41 37 +29 29243 30.063 0.234
2017-08-05 97% MXPerla WIN 45 15 +2 29241 30.063 0.235
2017-07-30 69% oddballshermans WIN 45 7 +3 29238 30.061 0.235
2017-07-27 97% Havoc_Legends WIN 45 44 +1 29237 30.060 0.235
2017-07-25 99% RebelDonate WIN 45 40 +66 29171 30.044 0.249
2017-07-22 98% Kenobi's_Command WIN 45 13 +29 29142 30.037 0.256
2017-07-20 99% RepublicOfHoon WIN 45 40 +120 29022 29.997 0.279
2017-07-16 105% Seekers_Of_Light WIN 35 31 +1,346 27676 29.376 0.486
2017-07-14 103% Havoc_Masters WIN 45 42 +933 26743 28.991 0.643
2017-07-11 108% A.Motley.Crew LOSS 39 41 +223 26520 31.984 1.561
2017-07-04 105% Escuadrón_Skull WIN 45 5 +400 26155 31.898 1.641
2017-07-01 109% LatinoFamily DRAW 45 45 0 26365 31.898 1.581
2017-06-27 116% RogueAlliance WIN 45 39 +2,163 24307 31.255 1.985
2017-06-22 1624% force:of:nature WIN 37 28 +22,761 1721 20.090 5.248
2017-06-18 2835700% Force3000 LOSS 25 44 +1,721 0 20.944 5.985
2017-06-12 2836900% SPAIN-IMPERIAL LOSS 39 42 +345 0 25.000 8.333
*Note: Wars from before June 22nd 2016 are not included.